Luke McCallum v0:30/r...40 row

3,668

Meters

20:00.0

Time

2:43.5

Pace

174

Calories

Rest Distance0
Rest Time
Overall Distance3,668
Overall Time20:00.0
Average Watts80
Calories Per Hour522
Stroke Rate33
Stroke Count671
Drag Factor116

September 23, 2024 12:50:00

Workout
RowErg

Workout Type
Variable Interval

Weight Class
Hwt

Verified
Yes

Entered
ErgData iOS

Indoor Rowing Phase 1
Week 5 Day 1
20 Sets of 30sec (RPE 9) / 30sec (RPE4)
DF - 110

Intervals

Time Meters Pace Watts Cal/Hr S/M
20:00.0 3,668 2:43.5 80 522 33
0:30.0 100 2:30.0 104 600 36
0:30.0 88 2:50.4 71 480 34
0:30.0 102 2:27.0 110 600 32
0:30.0 88 2:50.4 71 480 32
0:30.0 101 2:28.5 107 600 32
0:30.0 89 2:48.5 73 480 30
0:30.0 101 2:28.5 107 600 32
0:30.0 87 2:52.4 68 480 30
0:30.0 100 2:30.0 104 600 32
0:30.0 87 2:52.4 68 480 32
0:30.0 103 2:25.6 113 600 32
0:30.0 88 2:50.4 71 480 34
0:30.0 102 2:27.0 110 600 34
0:30.0 66 3:47.2 30 360 34
0:30.0 100 2:30.0 104 600 34
0:30.0 88 2:50.4 71 480 34
0:30.0 103 2:25.6 113 600 34
0:30.0 83 3:00.7 59 480 34
0:30.0 102 2:27.0 110 600 34
0:30.0 84 2:58.5 61 480 34
0:30.0 101 2:28.5 107 600 36
0:30.0 53 4:43.0 15 240 32
0:30.0 94 2:39.5 86 600 34
0:30.0 87 2:52.4 68 480 34
0:30.0 102 2:27.0 110 600 34
0:30.0 87 2:52.4 68 480 34
0:30.0 101 2:28.5 107 600 36
0:30.0 86 2:54.4 66 480 36
0:30.0 102 2:27.0 110 600 36
0:30.0 85 2:56.4 64 480 34
0:30.0 90 2:46.6 76 480 32
0:30.0 93 2:41.2 83 480 34
0:30.0 90 2:46.6 76 480 34
0:30.0 94 2:39.5 86 480 34
0:30.0 94 2:39.5 86 480 34
0:30.0 89 2:48.5 73 480 34
0:30.0 93 2:41.2 83 480 34
0:30.0 98 2:33.0 98 600 34
0:30.0 92 2:43.0 81 480 36
0:30.0 98 2:33.0 98 600 38

Click on an interval to see the workout graph.

Click and drag on the graph to zoom in on a section.

Workout Graph

Loading data.